createdAt,value
2023-02-12T00:00:44.995Z,29.77
2023-02-12T00:03:12.898Z,26.65
2023-02-12T00:05:41.744Z,27.75
2023-02-12T00:08:11.193Z,27.92
2023-02-12T00:10:41.765Z,26.77
2023-02-12T00:13:09.508Z,28.58
2023-02-12T00:15:41.075Z,27.60
2023-02-12T00:18:09.002Z,25.60
2023-02-12T00:20:37.983Z,28.23
2023-02-12T00:23:06.172Z,26.42
2023-02-12T00:25:33.972Z,25.20
2023-02-12T00:28:01.628Z,23.65
2023-02-12T00:30:29.797Z,26.33
2023-02-12T00:32:58.805Z,26.42
2023-02-12T00:35:26.406Z,23.00
2023-02-12T00:37:54.005Z,24.67
2023-02-12T00:40:21.749Z,26.52
2023-02-12T00:42:49.324Z,33.80
2023-02-12T00:45:17.080Z,26.10
2023-02-12T00:47:44.766Z,26.65
2023-02-12T00:50:13.773Z,24.38
2023-02-12T00:52:41.346Z,73.67
2023-02-12T00:55:09.173Z,42.75
2023-02-12T00:57:36.733Z,27.90
2023-02-12T01:00:05.063Z,26.13
2023-02-12T01:02:32.688Z,25.35
2023-02-12T01:05:00.445Z,31.95
2023-02-12T01:07:29.396Z,67.03
2023-02-12T01:09:57.003Z,27.13
2023-02-12T01:12:24.610Z,32.65
2023-02-12T01:14:52.406Z,106.03
2023-02-12T01:17:20.028Z,34.63
2023-02-12T01:19:47.622Z,33.25
2023-02-12T01:22:15.441Z,37.92
2023-02-12T01:24:44.337Z,35.30
2023-02-12T01:27:11.861Z,28.58
2023-02-12T01:29:39.793Z,29.00
2023-02-12T01:32:07.446Z,30.85
2023-02-12T01:34:35.140Z,27.97
2023-02-12T01:37:02.736Z,25.90
2023-02-12T01:39:30.334Z,25.50
2023-02-12T01:41:59.233Z,23.63
2023-02-12T01:44:31.260Z,24.57
2023-02-12T01:47:00.393Z,25.80
2023-02-12T01:49:32.789Z,25.02
2023-02-12T01:52:06.301Z,27.30
2023-02-12T01:54:35.953Z,24.15
2023-02-12T01:57:07.212Z,23.73
2023-02-12T01:59:37.396Z,24.13
2023-02-12T02:02:05.985Z,22.55
2023-02-12T02:04:41.225Z,24.25
2023-02-12T02:07:10.912Z,25.40
2023-02-12T02:09:40.257Z,22.77
2023-02-12T02:12:27.197Z,22.47
2023-02-12T02:14:58.977Z,22.87
2023-02-12T02:17:48.004Z,23.23
2023-02-12T02:20:51.387Z,22.13
2023-02-12T02:23:48.715Z,24.52
2023-02-12T02:26:43.430Z,24.17
2023-02-12T02:29:55.370Z,21.92
2023-02-12T02:32:27.850Z,23.98
2023-02-12T02:35:01.870Z,25.25
2023-02-12T02:37:34.029Z,23.45
2023-02-12T02:40:10.686Z,22.88
2023-02-12T02:42:43.079Z,23.30
2023-02-12T02:45:16.477Z,21.95
2023-02-12T02:47:49.839Z,22.25
2023-02-12T02:50:21.012Z,24.05
2023-02-12T02:52:54.266Z,22.20
2023-02-12T02:55:25.328Z,23.92
2023-02-12T02:57:57.412Z,24.75
2023-02-12T03:00:29.575Z,34.78
2023-02-12T03:03:03.232Z,36.43
2023-02-12T03:05:34.503Z,25.92
2023-02-12T03:08:09.671Z,25.50
2023-02-12T03:10:41.744Z,23.70
2023-02-12T03:13:13.239Z,24.05
2023-02-12T03:15:45.963Z,23.30
2023-02-12T03:18:20.698Z,26.85
2023-02-12T03:20:52.989Z,22.02
2023-02-12T03:23:26.481Z,24.20
2023-02-12T03:25:58.981Z,24.80
2023-02-12T03:28:30.834Z,23.58
2023-02-12T03:31:09.197Z,22.55
2023-02-12T03:33:50.917Z,25.25
2023-02-12T03:36:30.758Z,23.83
2023-02-12T03:39:07.147Z,25.02
2023-02-12T03:41:41.553Z,24.50
2023-02-12T03:44:17.488Z,24.27
2023-02-12T03:46:51.797Z,23.40
2023-02-12T03:49:25.564Z,26.05
2023-02-12T03:51:53.901Z,23.88
2023-02-12T03:54:23.050Z,25.13
2023-02-12T03:56:55.183Z,24.73
2023-02-12T03:59:25.141Z,23.77
2023-02-12T04:01:54.960Z,24.30
2023-02-12T04:04:25.015Z,24.73
2023-02-12T04:06:54.794Z,23.75
2023-02-12T04:09:24.191Z,24.05
2023-02-12T04:12:05.980Z,24.57
2023-02-12T04:14:42.180Z,23.38
2023-02-12T04:17:18.642Z,24.70
2023-02-12T04:19:55.865Z,25.90
2023-02-12T04:22:33.904Z,25.50
2023-02-12T04:25:10.856Z,26.65
2023-02-12T04:27:43.657Z,26.58
2023-02-12T04:30:19.037Z,25.20
2023-02-12T04:32:50.278Z,27.67
2023-02-12T04:35:23.798Z,29.07
2023-02-12T04:37:56.243Z,28.33
2023-02-12T04:40:24.490Z,27.40
2023-02-12T04:42:54.317Z,27.17
2023-02-12T04:45:25.166Z,27.98
2023-02-12T04:47:53.074Z,25.35
2023-02-12T04:50:22.450Z,28.42
2023-02-12T04:52:50.198Z,27.27
2023-02-12T04:55:17.970Z,28.98
2023-02-12T04:57:45.755Z,26.02
2023-02-12T05:00:15.809Z,26.75
2023-02-12T05:02:43.460Z,28.85
2023-02-12T05:05:11.141Z,25.83
2023-02-12T05:07:40.215Z,28.55
2023-02-12T05:10:09.611Z,27.25
2023-02-12T05:12:37.168Z,27.50
2023-02-12T05:15:05.460Z,27.23
2023-02-12T05:17:33.225Z,29.55
2023-02-12T05:20:00.810Z,26.73
2023-02-12T05:22:28.483Z,28.27
2023-02-12T05:24:57.375Z,28.75
2023-02-12T05:27:24.914Z,29.35
2023-02-12T05:29:52.490Z,27.13
2023-02-12T05:32:20.113Z,26.95
2023-02-12T05:34:47.819Z,28.73
2023-02-12T05:37:15.619Z,27.98
2023-02-12T05:39:43.226Z,31.63
2023-02-12T05:42:12.206Z,30.83
2023-02-12T05:44:39.857Z,28.57
2023-02-12T05:47:07.368Z,30.80
2023-02-12T05:49:34.942Z,26.98
2023-02-12T05:52:02.491Z,28.43
2023-02-12T05:54:30.026Z,29.35
2023-02-12T05:56:57.555Z,27.45
2023-02-12T05:59:26.476Z,29.60
2023-02-12T06:01:54.418Z,29.07
2023-02-12T06:04:23.975Z,31.50
2023-02-12T06:06:52.311Z,30.02
2023-02-12T06:09:20.210Z,31.10
2023-02-12T06:11:47.895Z,30.97
2023-02-12T06:14:17.229Z,28.42
2023-02-12T06:16:48.321Z,29.63
2023-02-12T06:19:16.256Z,29.65
2023-02-12T06:21:43.990Z,30.88
2023-02-12T06:24:13.598Z,30.25
2023-02-12T06:26:41.396Z,30.80
2023-02-12T06:29:08.984Z,27.00
2023-02-12T06:31:38.258Z,27.17
2023-02-12T06:34:17.957Z,28.90
2023-02-12T06:36:47.021Z,29.88
2023-02-12T06:39:17.307Z,28.77
2023-02-12T06:41:45.459Z,29.63
2023-02-12T06:44:14.012Z,29.00
2023-02-12T06:46:41.793Z,28.45
2023-02-12T06:49:14.158Z,30.03
2023-02-12T06:51:42.370Z,31.08
2023-02-12T06:54:14.736Z,28.10
2023-02-12T06:56:42.268Z,26.73
2023-02-12T06:59:14.043Z,28.33
2023-02-12T07:01:41.909Z,28.50
2023-02-12T07:04:12.357Z,27.67
2023-02-12T07:06:40.167Z,28.23
2023-02-12T07:09:07.768Z,29.03
2023-02-12T07:11:38.343Z,31.73
2023-02-12T07:14:06.499Z,28.75
2023-02-12T07:16:34.193Z,26.45
2023-02-12T07:19:01.916Z,27.75
2023-02-12T07:21:31.948Z,28.52
2023-02-12T07:23:59.544Z,29.00
2023-02-12T07:26:27.092Z,28.05
2023-02-12T07:28:54.637Z,28.52
2023-02-12T07:31:24.349Z,31.85
2023-02-12T07:33:55.224Z,28.77
2023-02-12T07:36:23.172Z,26.88
2023-02-12T07:38:52.143Z,25.75
2023-02-12T07:41:21.394Z,30.27
2023-02-12T07:43:50.616Z,29.42
2023-02-12T07:46:21.686Z,29.70
2023-02-12T07:48:49.686Z,29.38
2023-02-12T07:51:19.171Z,26.50
2023-02-12T07:53:46.924Z,30.77
2023-02-12T07:56:18.131Z,32.42
2023-02-12T07:58:47.168Z,26.33
2023-02-12T08:01:18.205Z,32.85
2023-02-12T08:03:47.023Z,28.75
2023-02-12T08:06:16.732Z,29.80
2023-02-12T08:08:44.774Z,34.30
2023-02-12T08:11:14.249Z,36.72
2023-02-12T08:13:43.585Z,31.42
2023-02-12T08:16:13.273Z,32.65
2023-02-12T08:18:40.933Z,34.15
2023-02-12T08:21:09.859Z,34.53
2023-02-12T08:23:38.130Z,34.65
2023-02-12T08:26:11.437Z,38.38
2023-02-12T08:28:41.000Z,37.33
2023-02-12T08:31:12.195Z,37.63
2023-02-12T08:33:39.801Z,37.20
2023-02-12T08:36:10.397Z,40.95
2023-02-12T08:38:38.890Z,41.90
2023-02-12T08:41:07.879Z,42.50
2023-02-12T08:43:36.008Z,43.05
2023-02-12T08:46:05.336Z,45.88
2023-02-12T08:48:34.464Z,48.78
2023-02-12T08:51:06.994Z,57.47
2023-02-12T08:53:34.953Z,49.63
2023-02-12T08:56:02.622Z,52.70
2023-02-12T08:58:30.310Z,54.50
2023-02-12T09:00:57.976Z,50.78
2023-02-12T09:03:25.971Z,47.85
2023-02-12T09:05:55.257Z,44.97
2023-02-12T09:08:23.028Z,43.38
2023-02-12T09:10:50.578Z,42.42
2023-02-12T09:13:18.323Z,41.67
2023-02-12T09:15:46.316Z,44.05
2023-02-12T09:18:15.886Z,49.38
2023-02-12T09:20:45.519Z,43.78
2023-02-12T09:23:15.492Z,50.58
2023-02-12T09:25:44.574Z,46.80
2023-02-12T09:28:13.578Z,50.33
2023-02-12T09:30:42.081Z,52.13
2023-02-12T09:33:12.292Z,53.45
2023-02-12T09:35:40.429Z,57.05
2023-02-12T09:38:09.291Z,57.17
2023-02-12T09:40:48.326Z,58.37
2023-02-12T09:43:19.634Z,62.63
2023-02-12T09:45:57.786Z,64.13
2023-02-12T09:48:55.431Z,67.57
2023-02-12T09:51:23.816Z,66.28
2023-02-12T09:54:00.553Z,65.60
2023-02-12T09:56:29.556Z,62.13
2023-02-12T09:59:00.528Z,60.80
2023-02-12T10:01:28.975Z,59.38
2023-02-12T10:03:57.540Z,61.03
2023-02-12T10:06:27.774Z,61.42
2023-02-12T10:09:02.208Z,61.20
2023-02-12T10:11:54.722Z,67.32
2023-02-12T10:14:58.696Z,62.85
2023-02-12T10:17:36.896Z,60.50
2023-02-12T10:20:32.728Z,61.67
2023-02-12T10:23:11.255Z,61.13
2023-02-12T10:25:48.640Z,59.30
2023-02-12T10:28:21.591Z,63.55
2023-02-12T10:30:53.908Z,64.35
2023-02-12T10:33:28.098Z,64.90
2023-02-12T10:36:00.275Z,74.68
2023-02-12T10:38:32.417Z,73.30
2023-02-12T10:41:01.854Z,69.97
2023-02-12T10:43:31.937Z,69.97
2023-02-12T10:45:59.582Z,73.40
2023-02-12T10:48:32.539Z,68.55
2023-02-12T10:51:13.923Z,65.67
2023-02-12T10:53:43.522Z,66.03
2023-02-12T10:56:17.674Z,68.85
2023-02-12T10:58:57.529Z,68.13
2023-02-12T11:01:28.069Z,75.95
2023-02-12T11:03:56.868Z,76.22
2023-02-12T11:06:27.681Z,69.43
2023-02-12T11:08:56.300Z,68.63
2023-02-12T11:11:26.445Z,61.30
2023-02-12T11:14:03.794Z,63.22
2023-02-12T11:16:34.052Z,60.22
2023-02-12T11:19:05.707Z,62.35
2023-02-12T11:21:34.022Z,63.30
2023-02-12T11:24:23.914Z,61.00
2023-02-12T11:26:51.480Z,63.47
2023-02-12T11:29:24.477Z,60.28
2023-02-12T11:32:03.702Z,63.65
2023-02-12T11:34:31.813Z,59.93
2023-02-12T11:36:59.995Z,66.15
2023-02-12T11:39:29.865Z,63.38
2023-02-12T11:42:00.420Z,64.00
2023-02-12T11:44:33.311Z,65.60
2023-02-12T11:47:08.708Z,58.83
2023-02-12T11:49:42.204Z,60.80
2023-02-12T11:52:21.524Z,60.63
2023-02-12T11:54:51.413Z,62.33
2023-02-12T11:57:38.641Z,59.92
2023-02-12T12:00:15.253Z,60.95
2023-02-12T12:02:47.847Z,57.95
2023-02-12T12:05:19.409Z,60.17
2023-02-12T12:07:57.142Z,58.45
2023-02-12T12:10:35.503Z,54.28
2023-02-12T12:13:06.644Z,56.05
2023-02-12T12:15:56.915Z,53.92
2023-02-12T12:18:48.949Z,53.37
2023-02-12T12:21:25.756Z,56.72
2023-02-12T12:23:58.069Z,56.05
2023-02-12T12:26:28.707Z,57.10
2023-02-12T12:29:02.852Z,50.45
2023-02-12T12:31:35.778Z,52.92
2023-02-12T12:34:08.656Z,48.13
2023-02-12T12:37:03.252Z,47.65
2023-02-12T12:39:37.960Z,46.00
2023-02-12T12:42:45.577Z,41.05
2023-02-12T12:45:30.384Z,36.92
2023-02-12T12:48:16.168Z,37.22
2023-02-12T12:51:01.381Z,34.30
2023-02-12T12:53:43.538Z,33.90
2023-02-12T12:56:35.155Z,31.63
2023-02-12T12:59:36.812Z,25.07
2023-02-12T13:02:38.204Z,26.80
2023-02-12T13:05:57.996Z,24.27
2023-02-12T13:08:53.178Z,22.50
2023-02-12T13:11:36.522Z,19.23
2023-02-12T13:14:15.729Z,17.77
2023-02-12T13:16:50.672Z,17.25
2023-02-12T13:19:33.755Z,14.80
2023-02-12T13:22:08.853Z,16.42
2023-02-12T13:24:43.559Z,16.30
2023-02-12T13:27:16.376Z,17.58
2023-02-12T13:29:47.581Z,16.35
2023-02-12T13:32:23.094Z,17.90
2023-02-12T13:34:54.456Z,18.63
2023-02-12T13:37:35.226Z,17.98
2023-02-12T13:40:05.791Z,19.40
2023-02-12T13:42:44.465Z,20.42
2023-02-12T13:45:28.080Z,19.80
2023-02-12T13:48:07.308Z,19.67
2023-02-12T13:50:42.939Z,20.90
2023-02-12T13:53:21.503Z,19.27
2023-02-12T13:56:06.691Z,19.73
2023-02-12T13:58:48.156Z,21.05
2023-02-12T14:01:37.590Z,22.35
2023-02-12T14:04:33.208Z,22.20
2023-02-12T14:07:05.027Z,22.60
2023-02-12T14:09:38.711Z,21.57
2023-02-12T14:12:08.315Z,22.08
2023-02-12T14:14:38.592Z,25.02
2023-02-12T14:17:53.852Z,20.63
2023-02-12T14:20:27.534Z,21.40
2023-02-12T14:23:20.112Z,23.35
2023-02-12T14:25:57.670Z,20.35
2023-02-12T14:28:30.911Z,20.42
2023-02-12T14:31:30.051Z,18.48
2023-02-12T14:34:31.000Z,19.10
2023-02-12T14:37:13.620Z,18.30
2023-02-12T14:39:41.255Z,21.48
2023-02-12T14:42:55.568Z,22.20
2023-02-12T14:45:34.952Z,21.23
2023-02-12T14:48:03.777Z,18.10
2023-02-12T14:50:39.445Z,18.23
2023-02-12T14:53:28.995Z,31.23
2023-02-12T14:55:58.264Z,22.55
2023-02-12T14:58:30.668Z,22.15
2023-02-12T15:01:01.211Z,21.55
2023-02-12T15:03:35.911Z,24.93
2023-02-12T15:06:08.684Z,24.92
2023-02-12T15:08:44.362Z,24.80
2023-02-12T15:11:25.965Z,23.90
2023-02-12T15:13:58.672Z,24.02
2023-02-12T15:16:35.503Z,22.42
2023-02-12T15:19:13.365Z,27.33
2023-02-12T15:21:41.951Z,23.77
2023-02-12T15:24:11.427Z,22.27
2023-02-12T15:26:42.684Z,23.30
2023-02-12T15:29:22.383Z,22.60
2023-02-12T15:31:55.993Z,24.35
2023-02-12T15:34:26.319Z,22.80
2023-02-12T15:36:56.200Z,24.52
2023-02-12T15:39:25.806Z,21.23
2023-02-12T15:41:53.439Z,21.80
2023-02-12T15:44:29.527Z,23.13
2023-02-12T15:47:03.998Z,24.50
2023-02-12T15:49:35.238Z,24.10
2023-02-12T15:52:06.036Z,23.98
2023-02-12T15:54:34.033Z,24.93
2023-02-12T15:57:02.852Z,24.37
2023-02-12T15:59:31.850Z,27.75
2023-02-12T16:02:03.257Z,26.77
2023-02-12T16:04:33.589Z,27.63
2023-02-12T16:07:02.430Z,28.20
2023-02-12T16:09:32.682Z,28.58
2023-02-12T16:12:03.197Z,29.73
2023-02-12T16:14:40.837Z,27.98
2023-02-12T16:17:22.105Z,31.73
2023-02-12T16:19:58.005Z,36.60
2023-02-12T16:22:29.657Z,44.00
2023-02-12T16:24:57.802Z,41.08
2023-02-12T16:27:28.343Z,37.22
2023-02-12T16:29:59.464Z,38.35
2023-02-12T16:32:38.326Z,38.67
2023-02-12T16:35:25.135Z,35.53
2023-02-12T16:37:56.319Z,41.58
2023-02-12T16:40:30.940Z,60.33
2023-02-12T16:43:04.176Z,47.00
2023-02-12T16:45:38.664Z,35.25
2023-02-12T16:48:17.212Z,32.75
2023-02-12T16:50:49.183Z,31.07
2023-02-12T16:53:34.343Z,30.23
2023-02-12T16:56:04.787Z,30.63
2023-02-12T16:58:32.565Z,33.45
2023-02-12T17:01:04.345Z,33.25
2023-02-12T17:03:32.497Z,36.70
2023-02-12T17:06:00.258Z,123.30
2023-02-12T17:08:27.827Z,44.35
2023-02-12T17:10:55.357Z,33.90
2023-02-12T17:13:22.956Z,44.30
2023-02-12T17:15:55.340Z,81.38
2023-02-12T17:18:25.180Z,70.57
2023-02-12T17:20:55.886Z,60.28
2023-02-12T17:23:24.613Z,54.70
2023-02-12T17:25:52.489Z,62.45
2023-02-12T17:28:20.878Z,70.95
2023-02-12T17:30:48.490Z,80.88
2023-02-12T17:33:17.067Z,64.15
2023-02-12T17:35:46.387Z,59.28
2023-02-12T17:38:14.146Z,60.72
2023-02-12T17:40:41.779Z,42.20
2023-02-12T17:43:09.559Z,47.27
2023-02-12T17:45:42.711Z,56.95
2023-02-12T17:48:10.523Z,47.00
2023-02-12T17:50:38.501Z,41.80
2023-02-12T17:53:07.963Z,44.60
2023-02-12T17:55:39.506Z,46.67
2023-02-12T17:58:08.199Z,49.28
2023-02-12T18:00:35.835Z,49.60
2023-02-12T18:03:03.439Z,52.67
2023-02-12T18:05:31.016Z,56.38
2023-02-12T18:07:58.653Z,66.97
2023-02-12T18:10:27.602Z,50.50
2023-02-12T18:12:55.230Z,58.40
2023-02-12T18:15:23.517Z,47.28
2023-02-12T18:17:51.190Z,45.58
2023-02-12T18:20:19.170Z,45.93
2023-02-12T18:22:47.295Z,50.70
2023-02-12T18:25:15.102Z,46.10
2023-02-12T18:27:44.254Z,44.60
2023-02-12T18:30:12.686Z,46.47
2023-02-12T18:32:40.273Z,48.00
2023-02-12T18:35:09.137Z,43.10
2023-02-12T18:37:36.965Z,48.78
2023-02-12T18:40:04.881Z,47.75
2023-02-12T18:42:33.266Z,44.50
2023-02-12T18:45:02.299Z,48.70
2023-02-12T18:47:29.932Z,47.38
2023-02-12T18:49:58.170Z,47.73
2023-02-12T18:52:26.148Z,41.92
2023-02-12T18:54:53.760Z,43.90
2023-02-12T18:57:21.513Z,46.63
2023-02-12T18:59:49.171Z,48.00
2023-02-12T19:02:18.390Z,45.08
2023-02-12T19:04:46.012Z,46.85
2023-02-12T19:07:13.654Z,41.92
2023-02-12T19:09:41.587Z,43.83
2023-02-12T19:12:09.234Z,43.50
2023-02-12T19:14:36.911Z,40.70
2023-02-12T19:17:04.702Z,40.25
2023-02-12T19:19:34.003Z,41.17
2023-02-12T19:22:01.736Z,43.38
2023-02-12T19:24:44.392Z,41.63
2023-02-12T19:27:13.744Z,43.25
2023-02-12T19:29:41.427Z,43.92
2023-02-12T19:32:09.221Z,53.47
2023-02-12T19:34:38.765Z,53.13
2023-02-12T19:37:08.255Z,51.58
2023-02-12T19:39:36.331Z,88.22
2023-02-12T19:42:04.055Z,47.05
2023-02-12T19:44:31.800Z,47.20
2023-02-12T19:46:59.523Z,55.72
2023-02-12T19:49:28.681Z,39.75
2023-02-12T19:51:57.779Z,54.45
2023-02-12T19:54:26.050Z,50.55
2023-02-12T19:56:55.182Z,51.50
2023-02-12T19:59:25.267Z,62.17
2023-02-12T20:01:53.093Z,69.82
2023-02-12T20:04:22.793Z,68.93
2023-02-12T20:06:50.833Z,45.55
2023-02-12T20:09:21.438Z,55.45
2023-02-12T20:11:50.099Z,44.55
2023-02-12T20:14:20.754Z,55.70
2023-02-12T20:16:48.399Z,61.63
2023-02-12T20:19:18.821Z,115.38
2023-02-12T20:21:48.904Z,54.58
2023-02-12T20:24:16.730Z,55.40
2023-02-12T20:26:45.875Z,45.70
2023-02-12T20:29:13.672Z,40.72
2023-02-12T20:31:41.441Z,64.63
2023-02-12T20:34:12.734Z,61.03
2023-02-12T20:36:43.197Z,41.28
2023-02-12T20:39:13.389Z,46.72
2023-02-12T20:41:42.280Z,46.17
2023-02-12T20:44:14.357Z,62.67
2023-02-12T20:46:42.579Z,49.83
2023-02-12T20:49:12.977Z,53.67
2023-02-12T20:51:41.010Z,49.80
2023-02-12T20:54:08.636Z,47.97
2023-02-12T20:56:38.645Z,74.63
2023-02-12T20:59:07.556Z,55.85
2023-02-12T21:01:38.568Z,50.25
2023-02-12T21:04:08.578Z,50.22
2023-02-12T21:06:36.663Z,50.67
2023-02-12T21:09:04.531Z,52.33
2023-02-12T21:11:32.195Z,49.53
2023-02-12T21:14:20.794Z,49.83
2023-02-12T21:16:49.659Z,56.33
2023-02-12T21:19:18.162Z,58.92
2023-02-12T21:21:46.046Z,63.42
2023-02-12T21:24:16.331Z,77.30
2023-02-12T21:26:44.361Z,60.50
2023-02-12T21:29:12.128Z,56.65
2023-02-12T21:31:42.038Z,60.03
2023-02-12T21:34:15.224Z,64.28
2023-02-12T21:36:44.996Z,64.00
2023-02-12T21:39:14.143Z,58.35
2023-02-12T21:41:43.942Z,58.10
2023-02-12T21:44:14.600Z,57.35
2023-02-12T21:46:42.907Z,60.95
2023-02-12T21:49:12.810Z,54.80
2023-02-12T21:51:42.301Z,61.00
2023-02-12T21:54:12.371Z,81.63
2023-02-12T21:56:41.437Z,80.00
2023-02-12T21:59:09.996Z,85.70
2023-02-12T22:01:42.276Z,78.85
2023-02-12T22:04:10.708Z,72.85
2023-02-12T22:06:42.624Z,82.40
2023-02-12T22:09:12.179Z,91.25
2023-02-12T22:11:41.381Z,84.72
2023-02-12T22:14:09.918Z,91.85
2023-02-12T22:16:38.887Z,94.60
2023-02-12T22:19:06.559Z,77.57
2023-02-12T22:21:37.217Z,69.85
2023-02-12T22:24:09.283Z,66.88
2023-02-12T22:26:37.442Z,62.42
2023-02-12T22:29:09.150Z,65.80
2023-02-12T22:31:39.173Z,81.57
2023-02-12T22:34:09.084Z,100.63
2023-02-12T22:36:38.529Z,88.20
2023-02-12T22:39:07.730Z,78.72
2023-02-12T22:41:35.905Z,64.63
2023-02-12T22:44:05.034Z,62.60
2023-02-12T22:46:33.156Z,65.30
2023-02-12T22:49:01.281Z,75.72
2023-02-12T22:51:30.976Z,74.63
2023-02-12T22:53:59.447Z,80.53
2023-02-12T22:56:28.470Z,74.88
2023-02-12T22:58:57.048Z,79.53
2023-02-12T23:01:25.071Z,82.18
2023-02-12T23:03:53.014Z,91.25
2023-02-12T23:06:23.156Z,96.57
2023-02-12T23:08:51.879Z,85.07
2023-02-12T23:11:19.921Z,99.80
2023-02-12T23:13:48.903Z,86.17
2023-02-12T23:16:16.563Z,69.30
2023-02-12T23:18:44.232Z,68.53
2023-02-12T23:21:12.111Z,67.93
2023-02-12T23:23:39.748Z,64.25
2023-02-12T23:26:07.661Z,61.00
2023-02-12T23:28:35.509Z,72.68
2023-02-12T23:31:04.619Z,113.75
2023-02-12T23:33:32.345Z,78.95
2023-02-12T23:36:00.216Z,77.93
2023-02-12T23:38:27.822Z,75.33
2023-02-12T23:40:55.643Z,80.50
2023-02-12T23:43:23.482Z,82.60
2023-02-12T23:45:51.036Z,94.05
2023-02-12T23:48:20.063Z,80.82
2023-02-12T23:50:49.800Z,82.80
2023-02-12T23:53:18.969Z,83.38
2023-02-12T23:55:46.823Z,73.80
2023-02-12T23:58:14.348Z,84.73
